1860 Hurricane NOT_NAMED (1860208N11301)


IBTrACS version v04r00. Visit IBTrACS website for data access.
Please direct all questions to the IBTrACS Q and A forum

Storm track - Intensity - Wind Radii - Intensity Data - Source Data - All data

Summary Information

Storm ID 1860208N11301
Start Jul 25 12Z
Landfall Jul 30 09Z, Jul 31 21Z
Max Intensity 75 kt (Jul 31 18Z)
End Aug 1 06Z
ATCF IDs
Track status Best track data.

Storm track plot

Map of storm track

Intensity plots

Map of storm track

Radial wind information

No radial wind information for this storm


Position and Intensity Table

BASIN ISO_TIME_________ NATURE LAT LON MLC WIND
degrees north degrees east kts
NA 1860-07-25 12:00:00 TS 11.00 -59.00 35
NA 15:00:00 TS 11.26 -59.95 35
NA 18:00:00 TS 11.50 -60.90 35
NA 21:00:00 TS 11.70 -61.86 40
NA 1860-07-26 00:00:00 TS 11.90 -62.80 45
NA 03:00:00 TS 12.15 -63.70 45
NA 06:00:00 TS 12.40 -64.60 45
NA 09:00:00 TS 12.60 -65.57 45
NA 12:00:00 TS 12.80 -66.50 45
NA 15:00:00 TS 13.05 -67.28 45
NA 18:00:00 TS 13.30 -68.00 45
NA 21:00:00 TS 13.51 -68.75 45
NA 1860-07-27 00:00:00 TS 13.70 -69.50 45
NA 03:00:00 TS 13.90 -70.25 45
NA 06:00:00 TS 14.10 -71.00 45
NA 09:00:00 TS 14.28 -71.74 45
NA 12:00:00 TS 14.50 -72.50 45
NA 15:00:00 TS 14.78 -73.29 50
NA 18:00:00 TS 15.10 -74.10 55
NA 21:00:00 TS 15.40 -74.90 55
NA 1860-07-28 00:00:00 TS 15.70 -75.70 55
NA 03:00:00 TS 16.00 -76.51 55
NA 06:00:00 TS 16.30 -77.30 55
NA 09:00:00 TS 16.61 -78.08 55
NA 12:00:00 TS 16.90 -78.80 55
NA 15:00:00 TS 17.16 -79.42 55
NA 18:00:00 TS 17.40 -80.00 55
NA 21:00:00 TS 17.60 -80.60 55
NA 1860-07-29 00:00:00 TS 17.80 -81.20 55
NA 03:00:00 TS 18.05 -81.81 55
NA 06:00:00 TS 18.30 -82.40 55
NA 09:00:00 TS 18.51 -82.94 55
NA 12:00:00 TS 18.70 -83.50 55
NA 15:00:00 TS 18.91 -84.14 55
NA 18:00:00 TS 19.10 -84.80 55
NA 21:00:00 TS 19.26 -85.40 55
NA 1860-07-30 00:00:00 TS 19.40 -86.00 55
NA 03:00:00 TS 19.55 -86.65 50
NA 06:00:00 TS 19.70 -87.30 45
NA 09:00:00 TS 19.88 -87.88 40
NA 12:00:00 TS 20.00 -88.50 35
NA 15:00:00 TS 19.98 -89.23 32
NA 18:00:00 TS 19.90 -90.00 30
NA 21:00:00 TS 19.85 -90.75 32
NA 1860-07-31 00:00:00 TS 19.80 -91.50 35
NA 03:00:00 TS 19.76 -92.27 42
NA 06:00:00 TS 19.70 -93.00 50
NA 09:00:00 TS 19.63 -93.65 55
NA 12:00:00 TS 19.50 -94.20 60
NA 15:00:00 TS 19.29 -94.63 67
NA 18:00:00 TS 19.00 -95.00 75
NA 21:00:00 TS 18.66 -95.40 60
NA 1860-08-01 00:00:00 TS 18.30 -95.80 45
NA 03:00:00 TS 17.95 -96.20 37
NA 06:00:00 TS 17.60 -96.60 30

Source Information

Agency Information
USA
TOKYO
CMA
HKO
NEWDELHI
REUNION
BOM
NADI
WELLINGTON
DS824
TD9636
TD9635
NEUMANN
MLC

All available IBTrACS Data

SEASON BASIN SUBBASIN ISO_TIME_________ NATURE LAT LON DIST2LAND LANDFALL IFLAG USA SSHS MLC LAT MLC LON MLC CLASS MLC WIND STORM SPEED STORM DIR
Year degrees north degrees east km km 1 degrees north degrees east kts kts degrees
1860 NA NA 1860-07-25 12:00:00 TS 11.00 -59.00 221 132 _____________O -1 11.00 -59.00 TS 35 19 286
1860 NA NA 15:00:00 TS 11.26 -59.95 137 89 _____________P -1 11.26 -59.95 TS 35 19 285
1860 NA CS 18:00:00 TS 11.50 -60.90 90 89 _____________O -1 11.50 -60.90 TS 35 19 283
1860 NA CS 21:00:00 TS 11.70 -61.86 114 112 _____________P -1 11.70 -61.86 TS 40 19 282
1860 NA CS 1860-07-26 00:00:00 TS 11.90 -62.80 134 134 _____________O -1 11.90 -62.80 TS 45 19 284
1860 NA CS 03:00:00 TS 12.15 -63.70 167 167 _____________P -1 12.15 -63.70 TS 45 18 286
1860 NA CS 06:00:00 TS 12.40 -64.60 206 206 _____________O -1 12.40 -64.60 TS 45 19 284
1860 NA CS 09:00:00 TS 12.60 -65.57 228 225 _____________P -1 12.60 -65.57 TS 45 19 282
1860 NA CS 12:00:00 TS 12.80 -66.50 246 240 _____________O -1 12.80 -66.50 TS 45 17 285
1860 NA CS 15:00:00 TS 13.05 -67.28 234 229 _____________P -1 13.05 -67.28 TS 45 15 289
1860 NA CS 18:00:00 TS 13.30 -68.00 229 203 _____________O -1 13.30 -68.00 TS 45 15 288
1860 NA CS 21:00:00 TS 13.51 -68.75 197 180 _____________P -1 13.51 -68.75 TS 45 15 285
1860 NA CS 1860-07-27 00:00:00 TS 13.70 -69.50 184 180 _____________O -1 13.70 -69.50 TS 45 15 285
1860 NA CS 03:00:00 TS 13.90 -70.25 201 194 _____________P -1 13.90 -70.25 TS 45 15 285
1860 NA CS 06:00:00 TS 14.10 -71.00 197 193 _____________O -1 14.10 -71.00 TS 45 15 285
1860 NA CS 09:00:00 TS 14.28 -71.74 212 212 _____________P -1 14.28 -71.74 TS 45 15 285
1860 NA CS 12:00:00 TS 14.50 -72.50 250 250 _____________O -1 14.50 -72.50 TS 45 16 288
1860 NA CS 15:00:00 TS 14.78 -73.29 313 313 _____________P -1 14.78 -73.29 TS 50 17 291
1860 NA CS 18:00:00 TS 15.10 -74.10 325 306 _____________O -1 15.10 -74.10 TS 55 17 292
1860 NA CS 21:00:00 TS 15.40 -74.90 309 251 _____________P -1 15.40 -74.90 TS 55 17 291
1860 NA CS 1860-07-28 00:00:00 TS 15.70 -75.70 251 204 _____________O -1 15.70 -75.70 TS 55 17 291
1860 NA CS 03:00:00 TS 16.00 -76.51 204 156 _____________P -1 16.00 -76.51 TS 55 17 291
1860 NA CS 06:00:00 TS 16.30 -77.30 157 144 _____________O -1 16.30 -77.30 TS 55 16 292
1860 NA CS 09:00:00 TS 16.61 -78.08 151 144 _____________P -1 16.61 -78.08 TS 55 16 293
1860 NA CS 12:00:00 TS 16.90 -78.80 151 144 _____________O -1 16.90 -78.80 TS 55 14 293
1860 NA CS 15:00:00 TS 17.16 -79.42 154 154 _____________P -1 17.16 -79.42 TS 55 13 294
1860 NA CS 18:00:00 TS 17.40 -80.00 191 191 _____________O -1 17.40 -80.00 TS 55 12 291
1860 NA CS 21:00:00 TS 17.60 -80.60 242 242 _____________P -1 17.60 -80.60 TS 55 12 289
1860 NA CS 1860-07-29 00:00:00 TS 17.80 -81.20 299 299 _____________O -1 17.80 -81.20 TS 55 12 291
1860 NA CS 03:00:00 TS 18.05 -81.81 346 342 _____________P -1 18.05 -81.81 TS 55 12 294
1860 NA CS 06:00:00 TS 18.30 -82.40 345 324 _____________O -1 18.30 -82.40 TS 55 12 293
1860 NA CS 09:00:00 TS 18.51 -82.94 324 308 _____________P -1 18.51 -82.94 TS 55 11 291
1860 NA CS 12:00:00 TS 18.70 -83.50 310 305 _____________O -1 18.70 -83.50 TS 55 12 289
1860 NA CS 15:00:00 TS 18.91 -84.14 310 276 _____________P -1 18.91 -84.14 TS 55 13 288
1860 NA CS 18:00:00 TS 19.10 -84.80 276 212 _____________O -1 19.10 -84.80 TS 55 12 286
1860 NA CS 21:00:00 TS 19.26 -85.40 210 147 _____________P -1 19.26 -85.40 TS 55 12 285
1860 NA CS 1860-07-30 00:00:00 TS 19.40 -86.00 147 83 _____________O -1 19.40 -86.00 TS 55 12 284
1860 NA CS 03:00:00 TS 19.55 -86.65 73 23 _____________P -1 19.55 -86.65 TS 50 13 284
1860 NA CS 06:00:00 TS 19.70 -87.30 23 0 _____________O -1 19.70 -87.30 TS 45 12 286
1860 NA NA 09:00:00 TS 19.88 -87.88 0 0 _____________P -1 19.88 -87.88 TS 40 12 285
1860 NA NA 12:00:00 TS 20.00 -88.50 0 0 _____________O -1 20.00 -88.50 TS 35 13 275
1860 NA NA 15:00:00 TS 19.98 -89.23 0 0 _____________P -1 19.98 -89.23 TS 32 14 266
1860 NA NA 18:00:00 TS 19.90 -90.00 0 0 _____________O -1 19.90 -90.00 TD 30 14 265
1860 NA GM 21:00:00 TS 19.85 -90.75 10 10 _____________P -1 19.85 -90.75 TD 32 14 266
1860 NA GM 1860-07-31 00:00:00 TS 19.80 -91.50 84 84 _____________O -1 19.80 -91.50 TS 35 14 266
1860 NA GM 03:00:00 TS 19.76 -92.27 131 123 _____________P -1 19.76 -92.27 TS 42 14 266
1860 NA GM 06:00:00 TS 19.70 -93.00 127 127 _____________O -1 19.70 -93.00 TS 50 13 264
1860 NA GM 09:00:00 TS 19.63 -93.65 145 131 _____________P -1 19.63 -93.65 TS 55 11 260
1860 NA GM 12:00:00 TS 19.50 -94.20 131 88 _____________O -1 19.50 -94.20 TS 60 10 250
1860 NA GM 15:00:00 TS 19.29 -94.63 88 39 _____________P -1 19.29 -94.63 TS 67 9 236
1860 NA GM 18:00:00 TS 19.00 -95.00 39 0 _____________O -1 19.00 -95.00 HU 75 10 229
1860 NA NA 21:00:00 TS 18.66 -95.40 0 0 _____________P -1 18.66 -95.40 HU 60 10 227
1860 NA NA 1860-08-01 00:00:00 TS 18.30 -95.80 0 0 _____________O -1 18.30 -95.80 TS 45 11 227
1860 NA NA 03:00:00 TS 17.95 -96.20 0 0 _____________P -1 17.95 -96.20 TS 37 10 227
1860 NA NA 06:00:00 TS 17.60 -96.60 0 _____________O -1 17.60 -96.60 TD 30 10 228